Bennington, VT

8:04 AM EST on January 27, 2015 (GMT -0500)
Pittsfield Municipal | Change Station
CLOSE
Current Station
Airport
Location: Pittsfield,
Elevation: 1194 ft
Nearby Weather Stations
Active Advisory: Winter Storm Warning Active Notice: Public Information Statement

Elev 1194 ft 42.43 °N, 73.29 °W | Updated 31 minutes ago

Snow
Snow
13 °F
Feels Like 3 °F
N
7
Wind Variable Wind from NW

Today
High -- | Low -- °F
--% Chance of Precip.
Yesterday
High -- | Low -- °F
Precip. -- in
7:12 AM 4:58 PM
First Quarter, 54% visible
Pressure 29.65 in
Visibility 1.0 miles
Clouds
Windchill 3 °F
Dew Point 10 °F
Humidity 88%
Rainfall 0.09 in
Snow Depth Not available.
UV Not available.
Pollen .10 out of 12
Air Quality Not available.
Flu Activity Not available.
SPECI KPSF 271233Z AUTO 32006KT 1SM -SN BR VV014 M11/M12 A2965 RMK AO2 P0002 T11061122

More Conditions Fewer Conditions

Pressure 29.65 in
Visibility 1.0 miles
Clouds
Windchill 3 °F
Dew Point 10 °F
Humidity 88%
Rainfall 0.09 in
Snow Depth Not available.
UV Not available.
Pollen .10 out of 12
Air Quality Not available.
Flu Activity Not available.
SPECI KPSF 271233Z AUTO 32006KT 1SM -SN BR VV014 M11/M12 A2965 RMK AO2 P0002 T11061122

More Conditions Fewer Conditions

10-Day Weather Forecast

Almanac

Astronomy

Jan. 27, 2015 Rise Set
Actual Time
Civil Twilight
Nautical Twilight
Astronomical Twilight
Moon
Length of Visible Light
Length of Day
Tomorrow will be .
, % of the Moon is Illuminated

Today's Extremes

State Highs State Lows

Community

WunderPhotos

Upload Photos

1,790,604 photos uploaded!

WunderBlogs® & News

Nearby

Air Quality

  Air Quality AQ Index Pollutant
Not available.

Snow Depth

Station Depth Elevation

Earthquake Activity

City Distance Mag. Time & Date
Minimum magnitude displayed is 2.5.

Coastal Water Temperatures

Place Temperature

Nearby Weather Stations